Current Weather

Aeroparque Jorge Newbery

Buenos Aires, Argentina (SABE)

Report from: Friday, April 19, 2024 6:00 AM -03
Current time: Friday, April 19, 2024 6:55 AM -03

Nearby weather – Weather history – Daily summaries
Weather forecast

Temperature18.0°C (64.4°F)
Dew point14.0°C (57.2°F)
Winds 8 kts (4.1 m/s, 9.2 mph) Vrb
Winds variableWinds variable from West-Northwest (290°) to North (350°)
Clouds Sky clear
Altimeter29.88 in.Hg (1012 mB)
Relative humidity77 %
Density altitude617 ft. (188 m)
Remarks Ceiling and visibility OK
No significant changes expected in the next two hours
Flight conditions Visual Meteorological Conditions
Raw dataSABE 190900Z 33008KT 290V350 CAVOK 18/14 Q1012 NOSIG
An error has occurred. This application may no longer respond until reloaded. Reload 🗙